Glendora, CA

8:21 PM PDT on October 21, 2014 (GMT -0700)
Ontario International | Change Station
CLOSE
Current Station
Airport
Location: Ontario,
Elevation: 942 ft
Nearby Weather Stations

Elev 942 ft 34.06 °N, 117.60 °W | Updated 28 minutes ago

Clear
Clear
70 °F
Feels Like 70 °F
N
8
Wind Variable Wind from West

Today
High -- | Low -- °F
--% Chance of Precip.
Yesterday
High -- | Low -- °F
Precip. -- in
7:01 AM 6:09 PM
Waning Crescent, 3% visible
Pressure 29.84 in
Visibility 10.0 miles
Clouds Scattered Clouds 25000 ft
Dew Point 56 °F
Humidity 61%
Rainfall 0.00 in
Snow Depth Not available.
UV 0 out of 12
Pollen 3.90 out of 12
Ozone Good
PM2.5 Moderate
Flu Activity Sporadic
METAR KONT 220253Z 26007KT 10SM SCT250 21/13 A2987 RMK AO2 SLP105 T02110133 53012

More Conditions Fewer Conditions

Pressure 29.84 in
Visibility 10.0 miles
Clouds Scattered Clouds 25000 ft
Dew Point 56 °F
Humidity 61%
Rainfall 0.00 in
Snow Depth Not available.
UV 0 out of 12
Pollen 3.90 out of 12
Ozone Good
PM2.5 Moderate
Flu Activity Sporadic
METAR KONT 220253Z 26007KT 10SM SCT250 21/13 A2987 RMK AO2 SLP105 T02110133 53012

More Conditions Fewer Conditions

10-Day Weather Forecast

Almanac

Astronomy

Oct. 21, 2014 Rise Set
Actual Time 7:01 AM PDT 6:09 PM PDT
Civil Twilight 6:36 AM PDT 6:35 PM PDT
Nautical Twilight 6:06 AM PDT 7:04 PM PDT
Astronomical Twilight 5:37 AM PDT 7:33 PM PDT
Moon 4:55 AM PDT (10/21) 5:01 PM PDT (10/21)
Length of Visible Light 11h 59m
Length of Day
11h 08m
Tomorrow will be 2m 0s shorter.
Waning Crescent, 3% of the Moon is Illuminated
Today
Waning Crescent
Oct 23
New
Oct 30
First Quarter
Nov 6
Full
Nov 14
Last Quarter

Today's Extremes

State Highs State Lows

Community

WunderPhotos

Upload Photos

1,763,874 photos uploaded!

Nearby

Air Quality

  Air Quality AQ Index Pollutant
Yesterday Good
PM10
Yesterday Good
OZONE
Current Moderate
PM2.5
Current Good
OZONE
Wednesday Good
PM10
Wednesday Good
OZONE
Wednesday Good
CO
Wednesday Good
NO2

Snow Depth

Station Depth Elevation
Virginia Lakes Ridge 0 in 9200 ft
Leavitt Lake 1 in 9400 ft
Leavitt Meadows 0 in 7200 ft
Sonora Pass 0 in 8800 ft
Summit Meadow 1 in 9122 ft

Earthquake Activity

City Distance Mag. Time & Date
No recent earthquake activity has been reported nearby.
Minimum magnitude displayed is 2.5.

Coastal Water Temperatures

Place Temperature
No Stations Reporting

Nearby Weather Stations